sensor_id;sensor_type;location;lat;lon;timestamp;P1;durP1;ratioP1;P2;durP2;ratioP2
70075;SDS011;63241;51.056;3.698;2023-05-07T00:01:02;13.00;;;3.55;;
70075;SDS011;63241;51.056;3.698;2023-05-07T00:03:32;10.50;;;4.28;;
70075;SDS011;63241;51.056;3.698;2023-05-07T00:05:59;9.65;;;3.60;;
70075;SDS011;63241;51.056;3.698;2023-05-07T00:08:27;14.87;;;3.50;;
70075;SDS011;63241;51.056;3.698;2023-05-07T00:10:55;14.58;;;4.20;;
70075;SDS011;63241;51.056;3.698;2023-05-07T00:13:22;11.75;;;3.75;;
70075;SDS011;63241;51.056;3.698;2023-05-07T00:15:50;12.90;;;3.75;;
70075;SDS011;63241;51.056;3.698;2023-05-07T00:18:18;12.43;;;3.52;;
70075;SDS011;63241;51.056;3.698;2023-05-07T00:20:47;14.58;;;3.50;;
70075;SDS011;63241;51.056;3.698;2023-05-07T00:23:15;15.98;;;4.22;;
70075;SDS011;63241;51.056;3.698;2023-05-07T00:25:42;12.55;;;3.62;;
70075;SDS011;63241;51.056;3.698;2023-05-07T00:28:10;12.43;;;4.12;;
70075;SDS011;63241;51.056;3.698;2023-05-07T00:30:38;10.15;;;3.50;;
70075;SDS011;63241;51.056;3.698;2023-05-07T00:33:05;8.60;;;3.17;;
70075;SDS011;63241;51.056;3.698;2023-05-07T00:35:33;12.63;;;3.70;;
70075;SDS011;63241;51.056;3.698;2023-05-07T00:38:00;12.28;;;3.72;;
70075;SDS011;63241;51.056;3.698;2023-05-07T00:40:28;11.88;;;4.08;;
70075;SDS011;63241;51.056;3.698;2023-05-07T00:42:56;8.25;;;3.75;;
70075;SDS011;63241;51.056;3.698;2023-05-07T00:45:26;13.65;;;4.45;;
70075;SDS011;63241;51.056;3.698;2023-05-07T00:47:59;12.83;;;3.93;;
70075;SDS011;63241;51.056;3.698;2023-05-07T00:50:28;9.93;;;3.85;;
70075;SDS011;63241;51.056;3.698;2023-05-07T00:53:20;18.25;;;5.15;;
70075;SDS011;63241;51.056;3.698;2023-05-07T00:55:48;9.18;;;3.70;;
70075;SDS011;63241;51.056;3.698;2023-05-07T00:58:16;11.22;;;3.77;;
70075;SDS011;63241;51.056;3.698;2023-05-07T01:00:44;13.40;;;3.50;;
70075;SDS011;63241;51.056;3.698;2023-05-07T01:03:12;10.72;;;3.27;;
70075;SDS011;63241;51.056;3.698;2023-05-07T01:05:40;14.73;;;3.72;;
70075;SDS011;63241;51.056;3.698;2023-05-07T01:08:08;10.72;;;3.45;;
70075;SDS011;63241;51.056;3.698;2023-05-07T01:10:36;13.28;;;3.83;;
70075;SDS011;63241;51.056;3.698;2023-05-07T01:13:06;11.60;;;3.70;;
70075;SDS011;63241;51.056;3.698;2023-05-07T01:15:33;8.25;;;3.40;;
70075;SDS011;63241;51.056;3.698;2023-05-07T01:18:01;10.82;;;3.22;;
70075;SDS011;63241;51.056;3.698;2023-05-07T01:20:29;14.50;;;3.72;;
70075;SDS011;63241;51.056;3.698;2023-05-07T01:22:57;14.03;;;3.77;;
70075;SDS011;63241;51.056;3.698;2023-05-07T01:25:26;12.13;;;3.40;;
70075;SDS011;63241;51.056;3.698;2023-05-07T01:27:55;14.33;;;3.62;;
70075;SDS011;63241;51.056;3.698;2023-05-07T01:30:22;11.73;;;3.62;;
70075;SDS011;63241;51.056;3.698;2023-05-07T01:33:01;13.70;;;3.95;;
70075;SDS011;63241;51.056;3.698;2023-05-07T01:35:28;13.72;;;4.35;;
70075;SDS011;63241;51.056;3.698;2023-05-07T01:38:01;17.27;;;4.20;;
70075;SDS011;63241;51.056;3.698;2023-05-07T01:40:31;9.05;;;3.40;;
70075;SDS011;63241;51.056;3.698;2023-05-07T01:43:01;14.55;;;4.25;;
70075;SDS011;63241;51.056;3.698;2023-05-07T01:45:30;10.75;;;3.50;;
70075;SDS011;63241;51.056;3.698;2023-05-07T01:47:58;9.98;;;3.40;;
70075;SDS011;63241;51.056;3.698;2023-05-07T01:50:26;11.00;;;3.52;;
70075;SDS011;63241;51.056;3.698;2023-05-07T01:52:54;9.60;;;3.35;;
70075;SDS011;63241;51.056;3.698;2023-05-07T01:55:22;12.10;;;3.40;;
70075;SDS011;63241;51.056;3.698;2023-05-07T01:57:50;9.80;;;3.58;;
70075;SDS011;63241;51.056;3.698;2023-05-07T02:00:18;9.65;;;3.70;;
70075;SDS011;63241;51.056;3.698;2023-05-07T02:02:46;7.87;;;3.42;;
70075;SDS011;63241;51.056;3.698;2023-05-07T02:05:13;17.48;;;3.55;;
70075;SDS011;63241;51.056;3.698;2023-05-07T02:07:41;9.85;;;3.80;;
70075;SDS011;63241;51.056;3.698;2023-05-07T02:10:09;10.30;;;4.00;;
70075;SDS011;63241;51.056;3.698;2023-05-07T02:12:36;11.57;;;3.87;;
70075;SDS011;63241;51.056;3.698;2023-05-07T02:15:04;12.28;;;4.33;;
70075;SDS011;63241;51.056;3.698;2023-05-07T02:17:32;13.53;;;3.72;;
70075;SDS011;63241;51.056;3.698;2023-05-07T02:20:00;14.85;;;3.87;;
70075;SDS011;63241;51.056;3.698;2023-05-07T02:22:29;12.93;;;4.17;;
70075;SDS011;63241;51.056;3.698;2023-05-07T02:24:57;13.45;;;3.92;;
70075;SDS011;63241;51.056;3.698;2023-05-07T02:27:25;20.27;;;3.83;;
70075;SDS011;63241;51.056;3.698;2023-05-07T02:29:52;13.48;;;4.28;;
70075;SDS011;63241;51.056;3.698;2023-05-07T02:32:20;12.00;;;4.08;;
70075;SDS011;63241;51.056;3.698;2023-05-07T02:34:50;11.63;;;4.60;;
70075;SDS011;63241;51.056;3.698;2023-05-07T02:37:18;11.10;;;3.60;;
70075;SDS011;63241;51.056;3.698;2023-05-07T02:39:45;12.78;;;4.17;;
70075;SDS011;63241;51.056;3.698;2023-05-07T02:45:18;12.85;;;4.20;;
70075;SDS011;63241;51.056;3.698;2023-05-07T02:47:46;12.88;;;3.83;;
70075;SDS011;63241;51.056;3.698;2023-05-07T02:50:14;11.73;;;3.72;;
70075;SDS011;63241;51.056;3.698;2023-05-07T02:52:41;13.43;;;3.77;;
70075;SDS011;63241;51.056;3.698;2023-05-07T02:55:09;13.05;;;3.92;;
70075;SDS011;63241;51.056;3.698;2023-05-07T02:57:37;12.05;;;3.95;;
70075;SDS011;63241;51.056;3.698;2023-05-07T03:00:16;8.23;;;3.22;;
70075;SDS011;63241;51.056;3.698;2023-05-07T03:02:41;16.65;;;4.20;;
70075;SDS011;63241;51.056;3.698;2023-05-07T03:05:09;9.10;;;3.72;;
70075;SDS011;63241;51.056;3.698;2023-05-07T03:07:38;14.98;;;3.90;;
70075;SDS011;63241;51.056;3.698;2023-05-07T03:10:05;10.65;;;3.80;;
70075;SDS011;63241;51.056;3.698;2023-05-07T03:12:34;12.18;;;4.10;;
70075;SDS011;63241;51.056;3.698;2023-05-07T03:15:01;11.83;;;4.15;;
70075;SDS011;63241;51.056;3.698;2023-05-07T03:17:29;11.97;;;4.35;;
70075;SDS011;63241;51.056;3.698;2023-05-07T03:19:57;11.25;;;3.80;;
70075;SDS011;63241;51.056;3.698;2023-05-07T03:22:25;17.00;;;4.72;;
70075;SDS011;63241;51.056;3.698;2023-05-07T03:24:52;9.43;;;3.60;;
70075;SDS011;63241;51.056;3.698;2023-05-07T03:27:20;11.90;;;4.10;;
70075;SDS011;63241;51.056;3.698;2023-05-07T03:29:48;12.13;;;4.17;;
70075;SDS011;63241;51.056;3.698;2023-05-07T03:32:16;12.70;;;4.10;;
70075;SDS011;63241;51.056;3.698;2023-05-07T03:34:43;11.43;;;3.83;;
70075;SDS011;63241;51.056;3.698;2023-05-07T03:37:11;11.93;;;4.05;;
70075;SDS011;63241;51.056;3.698;2023-05-07T03:39:39;9.80;;;4.12;;
70075;SDS011;63241;51.056;3.698;2023-05-07T03:42:06;14.05;;;3.95;;
70075;SDS011;63241;51.056;3.698;2023-05-07T03:44:34;16.65;;;4.62;;
70075;SDS011;63241;51.056;3.698;2023-05-07T03:47:02;14.07;;;3.90;;
70075;SDS011;63241;51.056;3.698;2023-05-07T03:49:31;11.35;;;4.22;;
70075;SDS011;63241;51.056;3.698;2023-05-07T03:51:58;15.18;;;4.80;;
70075;SDS011;63241;51.056;3.698;2023-05-07T03:54:26;12.33;;;4.50;;
70075;SDS011;63241;51.056;3.698;2023-05-07T03:56:54;13.20;;;4.50;;
70075;SDS011;63241;51.056;3.698;2023-05-07T03:59:22;15.25;;;3.87;;
70075;SDS011;63241;51.056;3.698;2023-05-07T04:01:49;13.40;;;4.80;;
70075;SDS011;63241;51.056;3.698;2023-05-07T04:04:17;15.68;;;4.20;;
70075;SDS011;63241;51.056;3.698;2023-05-07T04:06:46;12.80;;;4.28;;
70075;SDS011;63241;51.056;3.698;2023-05-07T04:09:13;10.28;;;3.50;;
70075;SDS011;63241;51.056;3.698;2023-05-07T04:11:42;9.38;;;4.00;;
70075;SDS011;63241;51.056;3.698;2023-05-07T04:14:09;11.00;;;3.95;;
70075;SDS011;63241;51.056;3.698;2023-05-07T04:16:37;10.18;;;4.00;;
70075;SDS011;63241;51.056;3.698;2023-05-07T04:19:05;12.65;;;3.33;;
70075;SDS011;63241;51.056;3.698;2023-05-07T04:21:33;8.75;;;4.10;;
70075;SDS011;63241;51.056;3.698;2023-05-07T04:24:02;12.13;;;4.00;;
70075;SDS011;63241;51.056;3.698;2023-05-07T04:26:30;10.43;;;4.50;;
70075;SDS011;63241;51.056;3.698;2023-05-07T04:28:58;9.53;;;4.00;;
70075;SDS011;63241;51.056;3.698;2023-05-07T04:31:25;14.05;;;4.25;;
70075;SDS011;63241;51.056;3.698;2023-05-07T04:33:53;10.55;;;4.45;;
70075;SDS011;63241;51.056;3.698;2023-05-07T04:36:21;8.98;;;3.87;;
70075;SDS011;63241;51.056;3.698;2023-05-07T04:38:48;10.18;;;4.78;;
70075;SDS011;63241;51.056;3.698;2023-05-07T04:41:16;10.80;;;5.00;;
70075;SDS011;63241;51.056;3.698;2023-05-07T04:43:44;8.48;;;4.08;;
70075;SDS011;63241;51.056;3.698;2023-05-07T04:46:12;11.60;;;4.42;;
70075;SDS011;63241;51.056;3.698;2023-05-07T04:48:39;12.30;;;4.40;;
70075;SDS011;63241;51.056;3.698;2023-05-07T04:51:07;10.85;;;4.65;;
70075;SDS011;63241;51.056;3.698;2023-05-07T04:53:35;10.63;;;4.22;;
70075;SDS011;63241;51.056;3.698;2023-05-07T04:56:02;11.25;;;4.67;;
70075;SDS011;63241;51.056;3.698;2023-05-07T04:58:31;11.53;;;4.83;;
70075;SDS011;63241;51.056;3.698;2023-05-07T05:00:58;10.55;;;3.95;;
70075;SDS011;63241;51.056;3.698;2023-05-07T05:03:26;10.90;;;4.45;;
70075;SDS011;63241;51.056;3.698;2023-05-07T05:05:54;14.18;;;4.80;;
70075;SDS011;63241;51.056;3.698;2023-05-07T05:08:23;9.10;;;4.37;;
70075;SDS011;63241;51.056;3.698;2023-05-07T05:10:51;12.15;;;4.85;;
70075;SDS011;63241;51.056;3.698;2023-05-07T05:13:19;11.90;;;5.12;;
70075;SDS011;63241;51.056;3.698;2023-05-07T05:15:47;14.10;;;4.87;;
70075;SDS011;63241;51.056;3.698;2023-05-07T05:18:14;13.95;;;4.95;;
70075;SDS011;63241;51.056;3.698;2023-05-07T05:20:42;12.07;;;4.92;;
70075;SDS011;63241;51.056;3.698;2023-05-07T05:23:10;13.95;;;5.05;;
70075;SDS011;63241;51.056;3.698;2023-05-07T05:25:37;14.80;;;5.08;;
70075;SDS011;63241;51.056;3.698;2023-05-07T05:28:06;12.13;;;4.60;;
70075;SDS011;63241;51.056;3.698;2023-05-07T05:30:33;14.85;;;5.53;;
70075;SDS011;63241;51.056;3.698;2023-05-07T05:33:01;10.30;;;4.65;;
70075;SDS011;63241;51.056;3.698;2023-05-07T05:35:29;14.25;;;5.50;;
70075;SDS011;63241;51.056;3.698;2023-05-07T05:37:57;12.50;;;4.95;;
70075;SDS011;63241;51.056;3.698;2023-05-07T05:40:25;14.55;;;6.00;;
70075;SDS011;63241;51.056;3.698;2023-05-07T05:42:52;13.48;;;5.15;;
70075;SDS011;63241;51.056;3.698;2023-05-07T05:45:20;12.55;;;5.53;;
70075;SDS011;63241;51.056;3.698;2023-05-07T05:47:48;14.53;;;5.72;;
70075;SDS011;63241;51.056;3.698;2023-05-07T05:50:15;14.10;;;5.78;;
70075;SDS011;63241;51.056;3.698;2023-05-07T05:52:43;12.07;;;5.47;;
70075;SDS011;63241;51.056;3.698;2023-05-07T05:55:11;14.05;;;5.83;;
70075;SDS011;63241;51.056;3.698;2023-05-07T05:57:38;14.25;;;6.60;;
70075;SDS011;63241;51.056;3.698;2023-05-07T06:00:06;12.58;;;6.33;;
70075;SDS011;63241;51.056;3.698;2023-05-07T06:02:35;16.02;;;6.55;;
70075;SDS011;63241;51.056;3.698;2023-05-07T06:05:03;14.63;;;6.55;;
70075;SDS011;63241;51.056;3.698;2023-05-07T06:07:31;17.30;;;6.35;;
70075;SDS011;63241;51.056;3.698;2023-05-07T06:10:05;13.13;;;6.22;;
70075;SDS011;63241;51.056;3.698;2023-05-07T06:12:29;13.88;;;6.15;;
70075;SDS011;63241;51.056;3.698;2023-05-07T06:14:57;12.60;;;6.28;;
70075;SDS011;63241;51.056;3.698;2023-05-07T06:17:24;17.07;;;7.65;;
70075;SDS011;63241;51.056;3.698;2023-05-07T06:19:52;13.93;;;7.40;;
70075;SDS011;63241;51.056;3.698;2023-05-07T06:22:20;12.82;;;6.78;;
70075;SDS011;63241;51.056;3.698;2023-05-07T06:24:48;17.23;;;6.58;;
70075;SDS011;63241;51.056;3.698;2023-05-07T06:27:15;13.65;;;6.15;;
70075;SDS011;63241;51.056;3.698;2023-05-07T06:29:43;9.53;;;5.72;;
70075;SDS011;63241;51.056;3.698;2023-05-07T06:32:11;15.43;;;6.22;;
70075;SDS011;63241;51.056;3.698;2023-05-07T06:34:40;12.18;;;5.83;;
70075;SDS011;63241;51.056;3.698;2023-05-07T06:37:08;13.15;;;5.92;;
70075;SDS011;63241;51.056;3.698;2023-05-07T06:39:36;14.85;;;6.10;;
70075;SDS011;63241;51.056;3.698;2023-05-07T06:42:03;13.13;;;5.62;;
70075;SDS011;63241;51.056;3.698;2023-05-07T06:44:31;13.60;;;5.42;;
70075;SDS011;63241;51.056;3.698;2023-05-07T06:46:59;11.60;;;5.67;;
70075;SDS011;63241;51.056;3.698;2023-05-07T06:49:27;11.08;;;5.90;;
70075;SDS011;63241;51.056;3.698;2023-05-07T06:51:54;12.10;;;6.33;;
70075;SDS011;63241;51.056;3.698;2023-05-07T06:54:22;11.93;;;6.22;;
70075;SDS011;63241;51.056;3.698;2023-05-07T06:56:50;14.03;;;6.25;;
70075;SDS011;63241;51.056;3.698;2023-05-07T06:59:18;12.47;;;5.67;;
70075;SDS011;63241;51.056;3.698;2023-05-07T07:01:45;9.08;;;4.80;;
70075;SDS011;63241;51.056;3.698;2023-05-07T07:04:13;12.68;;;5.90;;
70075;SDS011;63241;51.056;3.698;2023-05-07T07:06:41;17.40;;;6.55;;
70075;SDS011;63241;51.056;3.698;2023-05-07T07:09:08;14.58;;;6.17;;
70075;SDS011;63241;51.056;3.698;2023-05-07T07:11:36;15.00;;;5.78;;
70075;SDS011;63241;51.056;3.698;2023-05-07T07:14:04;13.83;;;5.45;;
70075;SDS011;63241;51.056;3.698;2023-05-07T07:16:32;14.43;;;5.47;;
70075;SDS011;63241;51.056;3.698;2023-05-07T07:19:00;9.43;;;4.83;;
70075;SDS011;63241;51.056;3.698;2023-05-07T07:21:28;15.50;;;5.80;;
70075;SDS011;63241;51.056;3.698;2023-05-07T07:23:56;11.53;;;5.50;;
70075;SDS011;63241;51.056;3.698;2023-05-07T07:26:24;9.05;;;5.85;;
70075;SDS011;63241;51.056;3.698;2023-05-07T07:28:51;11.40;;;6.17;;
70075;SDS011;63241;51.056;3.698;2023-05-07T07:31:19;13.80;;;5.90;;
70075;SDS011;63241;51.056;3.698;2023-05-07T07:33:47;12.18;;;5.90;;
70075;SDS011;63241;51.056;3.698;2023-05-07T07:36:16;13.93;;;5.70;;
70075;SDS011;63241;51.056;3.698;2023-05-07T07:38:43;12.93;;;5.97;;
70075;SDS011;63241;51.056;3.698;2023-05-07T07:41:11;15.58;;;6.08;;
70075;SDS011;63241;51.056;3.698;2023-05-07T07:43:38;11.28;;;5.62;;
70075;SDS011;63241;51.056;3.698;2023-05-07T07:46:06;16.07;;;6.25;;
70075;SDS011;63241;51.056;3.698;2023-05-07T07:48:34;18.80;;;7.03;;
70075;SDS011;63241;51.056;3.698;2023-05-07T07:51:02;11.05;;;5.40;;
70075;SDS011;63241;51.056;3.698;2023-05-07T07:53:29;14.73;;;5.62;;
70075;SDS011;63241;51.056;3.698;2023-05-07T07:55:57;12.98;;;6.53;;
70075;SDS011;63241;51.056;3.698;2023-05-07T07:58:25;13.00;;;5.40;;
70075;SDS011;63241;51.056;3.698;2023-05-07T08:00:52;15.90;;;5.58;;
70075;SDS011;63241;51.056;3.698;2023-05-07T08:03:21;9.25;;;5.17;;
70075;SDS011;63241;51.056;3.698;2023-05-07T08:05:49;11.65;;;5.45;;
70075;SDS011;63241;51.056;3.698;2023-05-07T08:08:17;15.70;;;5.58;;
70075;SDS011;63241;51.056;3.698;2023-05-07T08:10:44;10.23;;;4.90;;
70075;SDS011;63241;51.056;3.698;2023-05-07T08:13:14;12.33;;;5.85;;
70075;SDS011;63241;51.056;3.698;2023-05-07T08:15:42;11.20;;;5.83;;
70075;SDS011;63241;51.056;3.698;2023-05-07T08:18:09;15.30;;;5.67;;
70075;SDS011;63241;51.056;3.698;2023-05-07T08:20:37;13.10;;;5.40;;
70075;SDS011;63241;51.056;3.698;2023-05-07T08:23:05;12.33;;;5.15;;
70075;SDS011;63241;51.056;3.698;2023-05-07T08:25:33;13.98;;;5.53;;
70075;SDS011;63241;51.056;3.698;2023-05-07T08:28:01;11.93;;;5.58;;
70075;SDS011;63241;51.056;3.698;2023-05-07T08:30:29;11.85;;;5.92;;
70075;SDS011;63241;51.056;3.698;2023-05-07T08:32:56;11.12;;;5.70;;
70075;SDS011;63241;51.056;3.698;2023-05-07T08:35:24;16.95;;;5.60;;
70075;SDS011;63241;51.056;3.698;2023-05-07T08:37:52;11.68;;;5.42;;
70075;SDS011;63241;51.056;3.698;2023-05-07T08:40:21;13.70;;;6.28;;
70075;SDS011;63241;51.056;3.698;2023-05-07T08:42:52;13.78;;;5.33;;
70075;SDS011;63241;51.056;3.698;2023-05-07T08:45:20;12.73;;;5.55;;
70075;SDS011;63241;51.056;3.698;2023-05-07T08:47:50;8.78;;;5.00;;
70075;SDS011;63241;51.056;3.698;2023-05-07T08:50:19;9.73;;;5.35;;
70075;SDS011;63241;51.056;3.698;2023-05-07T08:52:51;11.68;;;5.10;;
70075;SDS011;63241;51.056;3.698;2023-05-07T08:55:19;11.57;;;5.15;;
70075;SDS011;63241;51.056;3.698;2023-05-07T08:57:47;12.30;;;4.85;;
70075;SDS011;63241;51.056;3.698;2023-05-07T09:00:15;9.45;;;4.40;;
70075;SDS011;63241;51.056;3.698;2023-05-07T09:02:43;12.18;;;4.30;;
70075;SDS011;63241;51.056;3.698;2023-05-07T09:05:11;9.18;;;4.17;;
70075;SDS011;63241;51.056;3.698;2023-05-07T09:07:39;11.15;;;4.28;;
70075;SDS011;63241;51.056;3.698;2023-05-07T09:10:07;10.45;;;4.25;;
70075;SDS011;63241;51.056;3.698;2023-05-07T09:12:35;9.40;;;4.53;;
70075;SDS011;63241;51.056;3.698;2023-05-07T09:15:02;9.15;;;3.98;;
70075;SDS011;63241;51.056;3.698;2023-05-07T09:17:30;9.35;;;4.12;;
70075;SDS011;63241;51.056;3.698;2023-05-07T09:20:02;9.78;;;4.10;;
70075;SDS011;63241;51.056;3.698;2023-05-07T09:22:32;9.25;;;3.72;;
70075;SDS011;63241;51.056;3.698;2023-05-07T09:25:00;8.93;;;3.67;;
70075;SDS011;63241;51.056;3.698;2023-05-07T09:27:28;10.00;;;3.80;;
70075;SDS011;63241;51.056;3.698;2023-05-07T09:29:57;13.22;;;3.37;;
70075;SDS011;63241;51.056;3.698;2023-05-07T09:32:24;5.83;;;2.77;;
70075;SDS011;63241;51.056;3.698;2023-05-07T09:34:53;9.38;;;3.22;;
70075;SDS011;63241;51.056;3.698;2023-05-07T09:37:21;7.15;;;2.50;;
70075;SDS011;63241;51.056;3.698;2023-05-07T09:39:49;6.78;;;3.02;;
70075;SDS011;63241;51.056;3.698;2023-05-07T09:42:22;7.12;;;2.67;;
70075;SDS011;63241;51.056;3.698;2023-05-07T09:44:50;6.45;;;2.83;;
70075;SDS011;63241;51.056;3.698;2023-05-07T09:47:18;8.78;;;2.70;;
70075;SDS011;63241;51.056;3.698;2023-05-07T09:49:47;6.05;;;2.70;;
70075;SDS011;63241;51.056;3.698;2023-05-07T09:52:16;7.87;;;2.40;;
70075;SDS011;63241;51.056;3.698;2023-05-07T09:54:44;5.80;;;2.60;;
70075;SDS011;63241;51.056;3.698;2023-05-07T09:57:14;4.87;;;2.27;;
70075;SDS011;63241;51.056;3.698;2023-05-07T09:59:42;5.75;;;2.87;;
70075;SDS011;63241;51.056;3.698;2023-05-07T10:02:12;6.47;;;2.40;;
70075;SDS011;63241;51.056;3.698;2023-05-07T10:04:41;6.75;;;2.83;;
70075;SDS011;63241;51.056;3.698;2023-05-07T10:07:09;9.70;;;3.00;;
70075;SDS011;63241;51.056;3.698;2023-05-07T10:09:37;6.25;;;2.60;;
70075;SDS011;63241;51.056;3.698;2023-05-07T10:12:07;8.75;;;2.80;;
70075;SDS011;63241;51.056;3.698;2023-05-07T10:14:35;8.48;;;2.62;;
70075;SDS011;63241;51.056;3.698;2023-05-07T10:17:03;4.95;;;2.37;;
70075;SDS011;63241;51.056;3.698;2023-05-07T10:19:32;7.15;;;2.75;;
70075;SDS011;63241;51.056;3.698;2023-05-07T10:22:03;6.67;;;2.65;;
70075;SDS011;63241;51.056;3.698;2023-05-07T10:24:32;8.45;;;3.12;;
70075;SDS011;63241;51.056;3.698;2023-05-07T10:27:01;5.53;;;3.02;;
70075;SDS011;63241;51.056;3.698;2023-05-07T10:35:10;9.40;;;3.75;;
70075;SDS011;63241;51.056;3.698;2023-05-07T10:53:40;5.50;;;1.95;;
70075;SDS011;63241;51.056;3.698;2023-05-07T11:01:53;5.78;;;2.58;;
70075;SDS011;63241;51.056;3.698;2023-05-07T11:04:23;7.00;;;2.27;;
70075;SDS011;63241;51.056;3.698;2023-05-07T11:09:57;4.58;;;2.20;;
70075;SDS011;63241;51.056;3.698;2023-05-07T11:15:07;4.83;;;1.92;;
70075;SDS011;63241;51.056;3.698;2023-05-07T11:33:39;3.92;;;1.67;;
70075;SDS011;63241;51.056;3.698;2023-05-07T11:36:08;3.87;;;1.82;;
70075;SDS011;63241;51.056;3.698;2023-05-07T11:38:36;4.30;;;2.02;;
70075;SDS011;63241;51.056;3.698;2023-05-07T11:41:04;5.58;;;1.80;;
70075;SDS011;63241;51.056;3.698;2023-05-07T11:43:32;4.25;;;1.90;;
70075;SDS011;63241;51.056;3.698;2023-05-07T11:46:05;3.90;;;1.87;;
70075;SDS011;63241;51.056;3.698;2023-05-07T11:48:36;4.62;;;2.00;;
70075;SDS011;63241;51.056;3.698;2023-05-07T13:42:29;3.83;;;1.90;;
70075;SDS011;63241;51.056;3.698;2023-05-07T13:44:57;3.58;;;1.75;;
70075;SDS011;63241;51.056;3.698;2023-05-07T13:53:19;3.08;;;2.08;;
70075;SDS011;63241;51.056;3.698;2023-05-07T13:55:47;6.08;;;2.25;;
70075;SDS011;63241;51.056;3.698;2023-05-07T14:01:12;4.33;;;2.42;;
70075;SDS011;63241;51.056;3.698;2023-05-07T14:03:51;5.25;;;3.15;;
70075;SDS011;63241;51.056;3.698;2023-05-07T14:09:24;4.55;;;2.40;;
70075;SDS011;63241;51.056;3.698;2023-05-07T14:11:52;5.60;;;2.95;;
70075;SDS011;63241;51.056;3.698;2023-05-07T14:14:23;6.30;;;3.60;;
70075;SDS011;63241;51.056;3.698;2023-05-07T14:17:10;4.87;;;3.27;;
70075;SDS011;63241;51.056;3.698;2023-05-07T14:19:41;5.22;;;3.72;;
70075;SDS011;63241;51.056;3.698;2023-05-07T14:22:09;8.30;;;4.58;;
70075;SDS011;63241;51.056;3.698;2023-05-07T14:24:37;9.13;;;5.28;;
70075;SDS011;63241;51.056;3.698;2023-05-07T14:27:07;9.65;;;5.22;;
70075;SDS011;63241;51.056;3.698;2023-05-07T14:32:44;15.63;;;7.90;;
70075;SDS011;63241;51.056;3.698;2023-05-07T14:35:11;13.20;;;6.58;;
70075;SDS011;63241;51.056;3.698;2023-05-07T14:37:39;10.93;;;6.33;;
70075;SDS011;63241;51.056;3.698;2023-05-07T14:40:07;9.43;;;5.37;;
70075;SDS011;63241;51.056;3.698;2023-05-07T14:42:40;7.08;;;5.12;;
70075;SDS011;63241;51.056;3.698;2023-05-07T14:45:08;8.93;;;7.20;;
70075;SDS011;63241;51.056;3.698;2023-05-07T14:47:36;7.03;;;4.72;;
70075;SDS011;63241;51.056;3.698;2023-05-07T14:50:04;10.60;;;8.63;;
70075;SDS011;63241;51.056;3.698;2023-05-07T14:52:32;12.82;;;7.78;;
70075;SDS011;63241;51.056;3.698;2023-05-07T14:54:59;11.05;;;9.25;;
70075;SDS011;63241;51.056;3.698;2023-05-07T14:57:27;11.55;;;8.10;;
70075;SDS011;63241;51.056;3.698;2023-05-07T14:59:55;9.28;;;6.83;;
70075;SDS011;63241;51.056;3.698;2023-05-07T15:02:23;6.67;;;5.05;;
70075;SDS011;63241;51.056;3.698;2023-05-07T15:04:50;7.75;;;4.92;;
70075;SDS011;63241;51.056;3.698;2023-05-07T15:07:18;12.03;;;5.22;;
70075;SDS011;63241;51.056;3.698;2023-05-07T15:09:46;8.80;;;4.55;;
70075;SDS011;63241;51.056;3.698;2023-05-07T15:12:13;5.22;;;3.65;;
70075;SDS011;63241;51.056;3.698;2023-05-07T15:14:41;9.68;;;4.90;;
70075;SDS011;63241;51.056;3.698;2023-05-07T15:17:09;5.87;;;3.62;;
70075;SDS011;63241;51.056;3.698;2023-05-07T15:19:37;8.38;;;5.08;;
70075;SDS011;63241;51.056;3.698;2023-05-07T15:22:04;6.65;;;4.20;;
70075;SDS011;63241;51.056;3.698;2023-05-07T15:24:32;7.20;;;4.05;;
70075;SDS011;63241;51.056;3.698;2023-05-07T15:27:00;7.35;;;3.87;;
70075;SDS011;63241;51.056;3.698;2023-05-07T15:29:28;9.75;;;4.10;;
70075;SDS011;63241;51.056;3.698;2023-05-07T15:31:56;5.58;;;3.90;;
70075;SDS011;63241;51.056;3.698;2023-05-07T15:34:24;7.08;;;4.00;;
70075;SDS011;63241;51.056;3.698;2023-05-07T15:36:52;6.17;;;3.83;;
70075;SDS011;63241;51.056;3.698;2023-05-07T15:39:19;8.18;;;3.98;;
70075;SDS011;63241;51.056;3.698;2023-05-07T15:41:47;7.25;;;3.70;;
70075;SDS011;63241;51.056;3.698;2023-05-07T15:44:15;6.60;;;3.55;;
70075;SDS011;63241;51.056;3.698;2023-05-07T15:46:42;9.58;;;3.80;;
70075;SDS011;63241;51.056;3.698;2023-05-07T15:49:10;5.85;;;3.77;;
70075;SDS011;63241;51.056;3.698;2023-05-07T15:51:37;7.08;;;3.75;;
70075;SDS011;63241;51.056;3.698;2023-05-07T15:54:05;7.65;;;3.67;;
70075;SDS011;63241;51.056;3.698;2023-05-07T15:56:33;4.25;;;3.10;;
70075;SDS011;63241;51.056;3.698;2023-05-07T15:59:00;5.83;;;2.92;;
70075;SDS011;63241;51.056;3.698;2023-05-07T16:01:28;6.42;;;2.95;;
70075;SDS011;63241;51.056;3.698;2023-05-07T16:03:57;4.08;;;2.58;;
70075;SDS011;63241;51.056;3.698;2023-05-07T16:06:25;5.10;;;2.50;;
70075;SDS011;63241;51.056;3.698;2023-05-07T16:08:53;6.10;;;2.80;;
70075;SDS011;63241;51.056;3.698;2023-05-07T16:11:21;4.83;;;2.60;;
70075;SDS011;63241;51.056;3.698;2023-05-07T16:13:48;5.97;;;2.58;;
70075;SDS011;63241;51.056;3.698;2023-05-07T16:16:16;4.42;;;2.85;;
70075;SDS011;63241;51.056;3.698;2023-05-07T16:18:44;4.37;;;2.92;;
70075;SDS011;63241;51.056;3.698;2023-05-07T16:21:11;6.47;;;3.15;;
70075;SDS011;63241;51.056;3.698;2023-05-07T16:23:39;6.85;;;3.20;;
70075;SDS011;63241;51.056;3.698;2023-05-07T16:26:07;4.65;;;2.92;;
70075;SDS011;63241;51.056;3.698;2023-05-07T16:28:34;6.30;;;3.45;;
70075;SDS011;63241;51.056;3.698;2023-05-07T16:31:03;6.65;;;3.80;;
70075;SDS011;63241;51.056;3.698;2023-05-07T16:33:33;6.20;;;3.45;;
70075;SDS011;63241;51.056;3.698;2023-05-07T16:36:01;7.50;;;4.75;;
70075;SDS011;63241;51.056;3.698;2023-05-07T16:38:28;12.18;;;6.00;;
70075;SDS011;63241;51.056;3.698;2023-05-07T16:40:58;23.10;;;8.70;;
70075;SDS011;63241;51.056;3.698;2023-05-07T16:43:26;21.75;;;10.98;;
70075;SDS011;63241;51.056;3.698;2023-05-07T16:45:54;20.05;;;12.63;;
70075;SDS011;63241;51.056;3.698;2023-05-07T16:48:21;22.67;;;13.90;;
70075;SDS011;63241;51.056;3.698;2023-05-07T16:50:49;23.67;;;16.87;;
70075;SDS011;63241;51.056;3.698;2023-05-07T16:53:17;34.80;;;23.30;;
70075;SDS011;63241;51.056;3.698;2023-05-07T16:55:45;25.97;;;19.77;;
70075;SDS011;63241;51.056;3.698;2023-05-07T16:58:13;36.05;;;25.02;;
70075;SDS011;63241;51.056;3.698;2023-05-07T17:00:40;36.58;;;25.12;;
70075;SDS011;63241;51.056;3.698;2023-05-07T17:03:08;30.02;;;21.50;;
70075;SDS011;63241;51.056;3.698;2023-05-07T17:05:36;25.97;;;18.92;;
70075;SDS011;63241;51.056;3.698;2023-05-07T17:08:04;30.02;;;20.90;;
70075;SDS011;63241;51.056;3.698;2023-05-07T17:10:31;29.40;;;21.93;;
70075;SDS011;63241;51.056;3.698;2023-05-07T17:12:59;33.67;;;22.52;;
70075;SDS011;63241;51.056;3.698;2023-05-07T17:15:27;38.58;;;25.15;;
70075;SDS011;63241;51.056;3.698;2023-05-07T17:17:55;33.73;;;26.30;;
70075;SDS011;63241;51.056;3.698;2023-05-07T17:47:14;36.23;;;31.27;;
70075;SDS011;63241;51.056;3.698;2023-05-07T17:49:42;37.80;;;25.88;;
70075;SDS011;63241;51.056;3.698;2023-05-07T17:52:10;33.40;;;21.55;;
70075;SDS011;63241;51.056;3.698;2023-05-07T17:54:37;25.60;;;20.60;;
70075;SDS011;63241;51.056;3.698;2023-05-07T17:57:05;29.15;;;18.98;;
70075;SDS011;63241;51.056;3.698;2023-05-07T17:59:33;27.70;;;18.80;;
70075;SDS011;63241;51.056;3.698;2023-05-07T18:02:00;23.00;;;17.27;;
70075;SDS011;63241;51.056;3.698;2023-05-07T18:04:28;21.75;;;16.77;;
70075;SDS011;63241;51.056;3.698;2023-05-07T18:06:56;25.27;;;15.90;;
70075;SDS011;63241;51.056;3.698;2023-05-07T18:09:24;23.00;;;15.75;;